NOZ77Y LIMC-ENGM
Flight info
| Callsign | NOZ77Y |
|---|---|
| Flight time | 2h 20m |
| Altitude | 36000 |
| Route | AOSTA DCT ORSUD DCT MOLUS DCT GILIR DCT PENDU DCT IXILU DCT EPL DCT ROUSY DCT DIK N852 GOPAS Y181 DEMUL M624 RITAX/N0437F370 DCT ARCKY DCT IBESA DCT MALYK/N0437F360 DCT AFPIN/N0440F370 DCT IPSUB DCT PEVOR P602 AMSEV DCT PIPEX M609 RIPAM |
| Aircraft | B738/M-SDE2E3FGHIRWXY/LB1 |
Departure
| Time | 2026-05-04 13:01 |
|---|---|
| Airport | Milan Malpensa International Airport (LIMC) |
Arrival
| Time | 2026-05-04 15:21 |
|---|---|
| Airport | Oslo-Gardermoen International Airport (ENGM) |
| Time | Latitude | Longitude | Altitude | Speed | Heading |
|---|---|---|---|---|---|
| 2026-05-04 12:20 | 45.62552 | 8.71672 | 748 ft | 0 kts | 169° |
| 2026-05-04 12:45 | 45.62571 | 8.71667 | 747 ft | 4 kts | 169° |
| 2026-05-04 12:46 | 45.62595 | 8.71660 | 749 ft | 3 kts | 169° |
| 2026-05-04 12:46 | 45.62616 | 8.71648 | 747 ft | 4 kts | 122° |
| 2026-05-04 12:46 | 45.62620 | 8.71615 | 747 ft | 4 kts | 80° |
| 2026-05-04 12:46 | 45.62619 | 8.71601 | 747 ft | 1 kts | 79° |
| 2026-05-04 12:47 | 45.62619 | 8.71600 | 747 ft | 0 kts | 79° |
| 2026-05-04 12:49 | 45.62619 | 8.71601 | 747 ft | 0 kts | 79° |
| 2026-05-04 12:49 | 45.62623 | 8.71631 | 748 ft | 7 kts | 79° |
| 2026-05-04 12:50 | 45.62636 | 8.71732 | 752 ft | 14 kts | 79° |
| 2026-05-04 12:50 | 45.62597 | 8.71844 | 748 ft | 15 kts | 167° |
| 2026-05-04 12:50 | 45.62498 | 8.71871 | 750 ft | 15 kts | 168° |
| 2026-05-04 12:50 | 45.62390 | 8.71901 | 752 ft | 16 kts | 169° |
| 2026-05-04 12:51 | 45.62269 | 8.71935 | 748 ft | 19 kts | 169° |
| 2026-05-04 12:51 | 45.62131 | 8.71973 | 747 ft | 21 kts | 169° |
| 2026-05-04 12:51 | 45.61979 | 8.72016 | 749 ft | 23 kts | 169° |
| 2026-05-04 12:51 | 45.61819 | 8.72059 | 752 ft | 23 kts | 170° |
| 2026-05-04 12:52 | 45.61664 | 8.72102 | 751 ft | 22 kts | 169° |
| 2026-05-04 12:52 | 45.61510 | 8.72145 | 748 ft | 23 kts | 168° |
| 2026-05-04 12:52 | 45.61351 | 8.72189 | 750 ft | 23 kts | 169° |
| 2026-05-04 12:52 | 45.61198 | 8.72233 | 751 ft | 22 kts | 169° |
| 2026-05-04 12:53 | 45.61048 | 8.72271 | 751 ft | 22 kts | 170° |
| 2026-05-04 12:53 | 45.60902 | 8.72313 | 752 ft | 21 kts | 167° |
| 2026-05-04 12:53 | 45.60762 | 8.72352 | 752 ft | 20 kts | 168° |
| 2026-05-04 12:53 | 45.60645 | 8.72443 | 749 ft | 20 kts | 114° |
| 2026-05-04 12:54 | 45.60627 | 8.72632 | 749 ft | 19 kts | 96° |
| 2026-05-04 12:54 | 45.60613 | 8.72819 | 753 ft | 19 kts | 96° |
| 2026-05-04 12:54 | 45.60599 | 8.73010 | 752 ft | 20 kts | 96° |
| 2026-05-04 12:54 | 45.60600 | 8.73209 | 751 ft | 20 kts | 68° |
| 2026-05-04 12:55 | 45.60711 | 8.73314 | 749 ft | 21 kts | 22° |
| 2026-05-04 12:55 | 45.60848 | 8.73393 | 751 ft | 22 kts | 22° |
| 2026-05-04 12:55 | 45.60994 | 8.73381 | 752 ft | 21 kts | 349° |
| 2026-05-04 12:55 | 45.61136 | 8.73341 | 752 ft | 20 kts | 348° |
| 2026-05-04 12:56 | 45.61273 | 8.73303 | 751 ft | 20 kts | 349° |
| 2026-05-04 12:56 | 45.61407 | 8.73266 | 751 ft | 19 kts | 349° |
| 2026-05-04 12:56 | 45.61535 | 8.73230 | 749 ft | 19 kts | 349° |
| 2026-05-04 12:56 | 45.61615 | 8.73261 | 749 ft | 13 kts | 78° |
| 2026-05-04 12:57 | 45.61631 | 8.73384 | 752 ft | 12 kts | 81° |
| 2026-05-04 12:57 | 45.61603 | 8.73496 | 750 ft | 12 kts | 121° |
| 2026-05-04 12:57 | 45.61584 | 8.73618 | 749 ft | 14 kts | 82° |
| 2026-05-04 12:57 | 45.61599 | 8.73723 | 744 ft | 5 kts | 68° |
| 2026-05-04 12:58 | 45.61633 | 8.73732 | 744 ft | 5 kts | 350° |
| 2026-05-04 12:58 | 45.61635 | 8.73732 | 744 ft | 0 kts | 350° |
| 2026-05-04 13:00 | 45.61641 | 8.73730 | 744 ft | 4 kts | 349° |
| 2026-05-04 13:01 | 45.61803 | 8.73686 | 743 ft | 57 kts | 348° |
| 2026-05-04 13:01 | 45.62435 | 8.73512 | 743 ft | 126 kts | 349° |
| 2026-05-04 13:01 | 45.63494 | 8.73227 | 757 ft | 180 kts | 347° |
| 2026-05-04 13:01 | 45.64720 | 8.72877 | 1547 ft | 179 kts | 346° |
| 2026-05-04 13:02 | 45.66001 | 8.72655 | 2208 ft | 196 kts | 355° |
| 2026-05-04 13:02 | 45.67433 | 8.72619 | 2667 ft | 217 kts | 358° |
| 2026-05-04 13:02 | 45.69009 | 8.72605 | 3066 ft | 235 kts | 358° |
| 2026-05-04 13:02 | 45.70683 | 8.72583 | 3698 ft | 243 kts | 358° |
| 2026-05-04 13:03 | 45.72350 | 8.72259 | 4456 ft | 241 kts | 332° |
| 2026-05-04 13:03 | 45.73574 | 8.70690 | 5229 ft | 240 kts | 296° |
| 2026-05-04 13:03 | 45.73991 | 8.68398 | 5874 ft | 239 kts | 267° |
| 2026-05-04 13:03 | 45.73656 | 8.66083 | 6615 ft | 239 kts | 244° |
| 2026-05-04 13:04 | 45.72897 | 8.63952 | 7101 ft | 253 kts | 238° |
| 2026-05-04 13:04 | 45.71954 | 8.61712 | 7497 ft | 269 kts | 237° |
| 2026-05-04 13:04 | 45.70972 | 8.59399 | 8255 ft | 273 kts | 236° |
| 2026-05-04 13:04 | 45.70106 | 8.56956 | 9137 ft | 280 kts | 253° |
| 2026-05-04 13:05 | 45.70157 | 8.54159 | 10045 ft | 289 kts | 281° |
| 2026-05-04 13:05 | 45.70723 | 8.51348 | 10632 ft | 301 kts | 282° |
| 2026-05-04 13:05 | 45.71328 | 8.48341 | 10824 ft | 325 kts | 282° |
| 2026-05-04 13:05 | 45.71970 | 8.45147 | 11263 ft | 338 kts | 282° |
| 2026-05-04 13:06 | 45.72611 | 8.41935 | 11982 ft | 341 kts | 282° |
| 2026-05-04 13:06 | 45.73259 | 8.38666 | 12812 ft | 341 kts | 282° |
| 2026-05-04 13:06 | 45.73900 | 8.35398 | 13618 ft | 342 kts | 282° |
| 2026-05-04 13:06 | 45.74543 | 8.32088 | 14327 ft | 345 kts | 282° |
| 2026-05-04 13:07 | 45.75185 | 8.28767 | 14968 ft | 348 kts | 282° |
| 2026-05-04 13:07 | 45.75832 | 8.25401 | 15645 ft | 351 kts | 282° |
| 2026-05-04 13:07 | 45.76479 | 8.22023 | 16301 ft | 353 kts | 281° |
| 2026-05-04 13:07 | 45.77134 | 8.18593 | 16854 ft | 358 kts | 282° |
| 2026-05-04 13:08 | 45.77792 | 8.15138 | 17540 ft | 360 kts | 282° |
| 2026-05-04 13:08 | 45.78442 | 8.11717 | 18161 ft | 364 kts | 282° |
| 2026-05-04 13:08 | 45.79113 | 8.08181 | 18785 ft | 366 kts | 282° |
| 2026-05-04 13:08 | 45.79782 | 8.04649 | 19388 ft | 368 kts | 281° |
| 2026-05-04 13:09 | 45.80456 | 8.01081 | 19886 ft | 373 kts | 281° |
| 2026-05-04 13:09 | 45.81138 | 7.97467 | 20389 ft | 377 kts | 281° |
| 2026-05-04 13:09 | 45.81823 | 7.93829 | 20918 ft | 379 kts | 281° |
| 2026-05-04 13:09 | 45.82514 | 7.90157 | 21400 ft | 383 kts | 281° |
| 2026-05-04 13:10 | 45.82973 | 7.87708 | 21715 ft | 385 kts | 281° |
| 2026-05-04 13:10 | 45.83902 | 7.82747 | 22356 ft | 390 kts | 281° |
| 2026-05-04 13:10 | 45.84607 | 7.78979 | 22881 ft | 393 kts | 281° |
| 2026-05-04 13:10 | 45.85316 | 7.75176 | 23400 ft | 396 kts | 281° |
| 2026-05-04 13:11 | 45.85789 | 7.72640 | 23740 ft | 398 kts | 281° |
| 2026-05-04 13:11 | 45.86505 | 7.68787 | 24140 ft | 401 kts | 281° |
| 2026-05-04 13:11 | 45.87229 | 7.64884 | 24610 ft | 404 kts | 281° |
| 2026-05-04 13:11 | 45.87955 | 7.60961 | 25033 ft | 407 kts | 281° |
| 2026-05-04 13:12 | 45.88683 | 7.57013 | 25448 ft | 410 kts | 281° |
| 2026-05-04 13:12 | 45.89405 | 7.53095 | 25823 ft | 413 kts | 281° |
| 2026-05-04 13:12 | 45.90141 | 7.49092 | 26205 ft | 415 kts | 281° |
| 2026-05-04 13:12 | 45.90881 | 7.45065 | 26618 ft | 418 kts | 281° |
| 2026-05-04 13:13 | 45.91628 | 7.40989 | 27000 ft | 421 kts | 281° |
| 2026-05-04 13:13 | 45.92376 | 7.36899 | 27362 ft | 423 kts | 281° |
| 2026-05-04 13:13 | 45.93123 | 7.32801 | 27691 ft | 426 kts | 281° |
| 2026-05-04 13:13 | 45.93877 | 7.28660 | 28049 ft | 430 kts | 280° |
| 2026-05-04 13:14 | 45.94634 | 7.24494 | 28455 ft | 432 kts | 281° |
| 2026-05-04 13:14 | 45.95689 | 7.20481 | 28782 ft | 441 kts | 294° |
| 2026-05-04 13:14 | 45.97444 | 7.16817 | 29111 ft | 450 kts | 308° |
| 2026-05-04 13:14 | 45.99815 | 7.13723 | 29502 ft | 458 kts | 320° |
| 2026-05-04 13:15 | 46.02404 | 7.11072 | 29763 ft | 464 kts | 322° |
| 2026-05-04 13:15 | 46.05078 | 7.08420 | 29924 ft | 469 kts | 322° |
| 2026-05-04 13:15 | 46.07779 | 7.05745 | 30196 ft | 471 kts | 322° |
| 2026-05-04 13:15 | 46.10473 | 7.03049 | 30539 ft | 470 kts | 321° |
| 2026-05-04 13:16 | 46.13141 | 7.00346 | 30882 ft | 469 kts | 321° |
| 2026-05-04 13:16 | 46.15811 | 6.97613 | 31202 ft | 469 kts | 321° |
| 2026-05-04 13:16 | 46.18436 | 6.94908 | 31501 ft | 468 kts | 320° |
| 2026-05-04 13:16 | 46.21092 | 6.92162 | 31875 ft | 466 kts | 320° |
| 2026-05-04 13:17 | 46.23718 | 6.89444 | 32351 ft | 462 kts | 320° |
| 2026-05-04 13:17 | 46.26313 | 6.86756 | 32840 ft | 458 kts | 320° |
| 2026-05-04 13:17 | 46.28899 | 6.84074 | 33262 ft | 455 kts | 320° |
| 2026-05-04 13:17 | 46.31476 | 6.81399 | 33662 ft | 454 kts | 320° |
| 2026-05-04 13:18 | 46.34013 | 6.78762 | 33933 ft | 455 kts | 319° |
| 2026-05-04 13:18 | 46.36590 | 6.76078 | 34100 ft | 457 kts | 319° |
| 2026-05-04 13:18 | 46.39180 | 6.73381 | 34366 ft | 456 kts | 320° |
| 2026-05-04 13:18 | 46.41756 | 6.70697 | 34669 ft | 454 kts | 319° |
| 2026-05-04 13:19 | 46.44328 | 6.68059 | 34934 ft | 455 kts | 322° |
| 2026-05-04 13:19 | 46.47106 | 6.65786 | 35160 ft | 459 kts | 329° |
| 2026-05-04 13:19 | 46.49989 | 6.63761 | 35427 ft | 459 kts | 330° |
| 2026-05-04 13:19 | 46.52846 | 6.61824 | 35707 ft | 458 kts | 330° |
| 2026-05-04 13:20 | 46.55734 | 6.59868 | 35978 ft | 457 kts | 330° |
| 2026-05-04 13:20 | 46.58616 | 6.57895 | 36237 ft | 456 kts | 330° |
| 2026-05-04 13:20 | 46.61477 | 6.55908 | 36501 ft | 455 kts | 329° |
| 2026-05-04 13:20 | 46.64334 | 6.53902 | 36751 ft | 454 kts | 329° |
| 2026-05-04 13:21 | 46.67140 | 6.51920 | 36981 ft | 453 kts | 329° |
| 2026-05-04 13:21 | 46.69978 | 6.49906 | 37221 ft | 452 kts | 329° |
| 2026-05-04 13:21 | 46.72825 | 6.47883 | 37385 ft | 454 kts | 329° |
| 2026-05-04 13:21 | 46.75640 | 6.45879 | 37507 ft | 455 kts | 329° |
| 2026-05-04 13:22 | 46.78492 | 6.43849 | 37747 ft | 454 kts | 329° |
| 2026-05-04 13:22 | 46.81327 | 6.41831 | 38030 ft | 452 kts | 329° |
| 2026-05-04 13:22 | 46.84163 | 6.39808 | 38004 ft | 456 kts | 329° |
| 2026-05-04 13:23 | 46.89902 | 6.35706 | 38027 ft | 462 kts | 329° |
| 2026-05-04 13:23 | 46.95716 | 6.31543 | 38029 ft | 467 kts | 329° |
| 2026-05-04 13:24 | 47.01545 | 6.27362 | 38036 ft | 470 kts | 329° |
| 2026-05-04 13:24 | 47.07443 | 6.23120 | 38035 ft | 472 kts | 329° |
| 2026-05-04 13:25 | 47.16327 | 6.16720 | 38024 ft | 474 kts | 329° |
| 2026-05-04 13:25 | 47.22257 | 6.12435 | 38020 ft | 474 kts | 329° |
| 2026-05-04 13:26 | 47.28173 | 6.08148 | 38009 ft | 473 kts | 329° |
| 2026-05-04 13:26 | 47.34204 | 6.04348 | 38006 ft | 478 kts | 341° |
| 2026-05-04 13:27 | 47.40838 | 6.03150 | 38018 ft | 485 kts | 357° |
| 2026-05-04 13:27 | 47.47618 | 6.03417 | 38021 ft | 485 kts | 359° |
| 2026-05-04 13:28 | 47.54337 | 6.03686 | 38013 ft | 485 kts | 358° |
| 2026-05-04 13:28 | 47.61091 | 6.03857 | 38017 ft | 484 kts | 358° |
| 2026-05-04 13:29 | 47.67787 | 6.03998 | 38030 ft | 483 kts | 358° |
| 2026-05-04 13:29 | 47.74523 | 6.04150 | 38018 ft | 483 kts | 358° |
| 2026-05-04 13:30 | 47.81260 | 6.04346 | 38018 ft | 482 kts | 358° |
| 2026-05-04 13:30 | 47.87951 | 6.04564 | 38022 ft | 482 kts | 358° |
| 2026-05-04 13:31 | 47.94685 | 6.04779 | 38018 ft | 482 kts | 358° |
| 2026-05-04 13:31 | 48.01343 | 6.04987 | 38017 ft | 482 kts | 358° |
| 2026-05-04 13:32 | 48.08065 | 6.05196 | 38024 ft | 482 kts | 358° |
| 2026-05-04 13:32 | 48.14779 | 6.05406 | 38016 ft | 482 kts | 358° |
| 2026-05-04 13:33 | 48.21490 | 6.05617 | 38021 ft | 482 kts | 358° |
| 2026-05-04 13:33 | 48.28170 | 6.05827 | 38032 ft | 482 kts | 358° |
| 2026-05-04 13:34 | 48.34901 | 6.06059 | 38026 ft | 483 kts | 359° |
| 2026-05-04 13:34 | 48.41588 | 6.06375 | 38023 ft | 483 kts | 359° |
| 2026-05-04 13:35 | 48.51676 | 6.06875 | 38030 ft | 483 kts | 359° |
| 2026-05-04 13:36 | 48.58364 | 6.07195 | 38043 ft | 483 kts | 359° |
| 2026-05-04 13:36 | 48.65101 | 6.07514 | 38031 ft | 484 kts | 359° |
| 2026-05-04 13:37 | 48.71851 | 6.07834 | 38014 ft | 484 kts | 359° |
| 2026-05-04 13:37 | 48.78603 | 6.08156 | 38025 ft | 485 kts | 359° |
| 2026-05-04 13:38 | 48.85326 | 6.08477 | 38021 ft | 485 kts | 359° |
| 2026-05-04 13:38 | 48.92088 | 6.08802 | 38025 ft | 486 kts | 359° |
| 2026-05-04 13:39 | 48.98804 | 6.09125 | 38013 ft | 486 kts | 359° |
| 2026-05-04 13:39 | 49.05571 | 6.09451 | 38021 ft | 485 kts | 359° |
| 2026-05-04 13:40 | 49.12341 | 6.09778 | 38026 ft | 485 kts | 359° |
| 2026-05-04 13:40 | 49.19063 | 6.10104 | 38015 ft | 486 kts | 359° |
| 2026-05-04 13:41 | 49.25849 | 6.10434 | 38014 ft | 487 kts | 359° |
| 2026-05-04 13:41 | 49.32641 | 6.10765 | 37993 ft | 487 kts | 359° |
| 2026-05-04 13:42 | 49.42768 | 6.11261 | 38012 ft | 485 kts | 359° |
| 2026-05-04 13:42 | 49.49481 | 6.11584 | 38021 ft | 484 kts | 359° |
| 2026-05-04 13:43 | 49.56222 | 6.11843 | 38024 ft | 486 kts | 359° |
| 2026-05-04 13:43 | 49.63010 | 6.12088 | 38005 ft | 486 kts | 358° |
| 2026-05-04 13:44 | 49.69722 | 6.12342 | 38016 ft | 484 kts | 359° |
| 2026-05-04 13:44 | 49.76449 | 6.12602 | 38032 ft | 483 kts | 359° |
| 2026-05-04 13:45 | 49.83187 | 6.12861 | 38030 ft | 483 kts | 359° |
| 2026-05-04 13:45 | 49.89856 | 6.13877 | 38017 ft | 487 kts | 9° |
| 2026-05-04 13:46 | 49.96497 | 6.16090 | 37991 ft | 487 kts | 10° |
| 2026-05-04 13:46 | 50.03099 | 6.18334 | 38012 ft | 485 kts | 10° |
| 2026-05-04 13:47 | 50.09676 | 6.20475 | 37998 ft | 483 kts | 9° |
| 2026-05-04 13:47 | 50.16284 | 6.22586 | 37986 ft | 483 kts | 9° |
| 2026-05-04 13:48 | 50.22830 | 6.24681 | 38007 ft | 482 kts | 9° |
| 2026-05-04 13:48 | 50.29410 | 6.26797 | 38000 ft | 483 kts | 9° |
| 2026-05-04 13:49 | 50.36011 | 6.28929 | 37985 ft | 483 kts | 9° |
| 2026-05-04 13:49 | 50.42564 | 6.31051 | 37976 ft | 483 kts | 9° |
| 2026-05-04 13:50 | 50.49175 | 6.33208 | 37993 ft | 484 kts | 10° |
| 2026-05-04 13:50 | 50.55620 | 6.36236 | 37996 ft | 486 kts | 17° |
| 2026-05-04 13:51 | 50.62023 | 6.39768 | 37986 ft | 488 kts | 17° |
| 2026-05-04 13:51 | 50.68428 | 6.43291 | 37984 ft | 489 kts | 17° |
| 2026-05-04 13:52 | 50.78123 | 6.48490 | 37979 ft | 489 kts | 16° |
| 2026-05-04 13:53 | 50.84537 | 6.51907 | 37995 ft | 488 kts | 16° |
| 2026-05-04 13:53 | 50.90994 | 6.55359 | 38000 ft | 489 kts | 16° |
| 2026-05-04 13:54 | 51.00707 | 6.60576 | 38002 ft | 491 kts | 16° |
| 2026-05-04 13:55 | 51.10390 | 6.65803 | 37964 ft | 490 kts | 16° |
| 2026-05-04 13:55 | 51.20043 | 6.71038 | 37992 ft | 486 kts | 16° |
| 2026-05-04 13:56 | 51.26402 | 6.74498 | 37987 ft | 485 kts | 16° |
| 2026-05-04 13:57 | 51.34891 | 6.79132 | 37989 ft | 483 kts | 16° |
| 2026-05-04 13:58 | 51.47570 | 6.86088 | 37986 ft | 482 kts | 16° |
| 2026-05-04 13:58 | 51.57127 | 6.91358 | 37986 ft | 484 kts | 16° |
| 2026-05-04 13:59 | 51.63521 | 6.94897 | 37991 ft | 486 kts | 17° |
| 2026-05-04 14:00 | 51.73115 | 7.00228 | 37998 ft | 488 kts | 16° |
| 2026-05-04 14:00 | 51.82734 | 7.05596 | 37990 ft | 490 kts | 17° |
| 2026-05-04 14:01 | 51.89199 | 7.09219 | 37988 ft | 490 kts | 16° |
| 2026-05-04 14:02 | 51.98850 | 7.14647 | 37985 ft | 490 kts | 16° |
| 2026-05-04 14:02 | 52.05312 | 7.18296 | 37979 ft | 490 kts | 17° |
| 2026-05-04 14:03 | 52.11760 | 7.21947 | 37981 ft | 490 kts | 16° |
| 2026-05-04 14:03 | 52.18159 | 7.25582 | 37979 ft | 489 kts | 16° |
| 2026-05-04 14:04 | 52.27803 | 7.31080 | 37972 ft | 489 kts | 16° |
| 2026-05-04 14:04 | 52.34226 | 7.34757 | 37982 ft | 489 kts | 16° |
| 2026-05-04 14:05 | 52.43833 | 7.40276 | 37987 ft | 489 kts | 16° |
| 2026-05-04 14:06 | 52.50250 | 7.43978 | 37983 ft | 489 kts | 16° |
| 2026-05-04 14:06 | 52.56632 | 7.47671 | 38000 ft | 488 kts | 16° |
| 2026-05-04 14:07 | 52.63032 | 7.51386 | 37974 ft | 488 kts | 16° |
| 2026-05-04 14:07 | 52.69429 | 7.55110 | 37965 ft | 487 kts | 16° |
| 2026-05-04 14:08 | 52.75826 | 7.58847 | 37981 ft | 486 kts | 16° |
| 2026-05-04 14:08 | 52.82211 | 7.62587 | 37977 ft | 487 kts | 15° |
| 2026-05-04 14:09 | 52.91743 | 7.68194 | 37954 ft | 484 kts | 15° |
| 2026-05-04 14:10 | 53.01402 | 7.72378 | 38004 ft | 470 kts | 358° |
| 2026-05-04 14:10 | 53.07897 | 7.72220 | 37989 ft | 464 kts | 353° |
| 2026-05-04 14:11 | 53.14311 | 7.71881 | 37984 ft | 462 kts | 353° |
| 2026-05-04 14:11 | 53.23960 | 7.71487 | 37982 ft | 460 kts | 354° |
| 2026-05-04 14:12 | 53.30337 | 7.71271 | 38002 ft | 460 kts | 354° |
| 2026-05-04 14:13 | 53.39953 | 7.70947 | 38039 ft | 463 kts | 354° |
| 2026-05-04 14:13 | 53.46404 | 7.71277 | 38488 ft | 466 kts | 3° |
| 2026-05-04 14:13 | 53.49604 | 7.72011 | 38903 ft | 461 kts | 4° |
| 2026-05-04 14:14 | 53.52772 | 7.72818 | 39005 ft | 462 kts | 5° |
| 2026-05-04 14:14 | 53.62385 | 7.75257 | 39028 ft | 469 kts | 4° |
| 2026-05-04 14:15 | 53.75391 | 7.78340 | 39036 ft | 476 kts | 4° |
| 2026-05-04 14:16 | 53.85253 | 7.80657 | 39018 ft | 478 kts | 5° |
| 2026-05-04 14:17 | 53.95158 | 7.83000 | 39012 ft | 478 kts | 5° |
| 2026-05-04 14:18 | 54.05011 | 7.85343 | 39014 ft | 477 kts | 5° |
| 2026-05-04 14:19 | 54.18132 | 7.88480 | 39015 ft | 474 kts | 5° |
| 2026-05-04 14:19 | 54.24641 | 7.90044 | 39030 ft | 473 kts | 5° |
| 2026-05-04 14:20 | 54.31169 | 7.91617 | 39020 ft | 472 kts | 5° |
| 2026-05-04 14:20 | 54.37680 | 7.93191 | 39017 ft | 471 kts | 5° |
| 2026-05-04 14:21 | 54.47375 | 7.95544 | 39018 ft | 470 kts | 5° |
| 2026-05-04 14:21 | 54.53873 | 7.97127 | 39023 ft | 470 kts | 4° |
| 2026-05-04 14:22 | 54.60325 | 7.98704 | 39018 ft | 469 kts | 4° |
| 2026-05-04 14:22 | 54.66800 | 8.00292 | 39019 ft | 469 kts | 4° |
| 2026-05-04 14:23 | 54.76466 | 8.02672 | 39037 ft | 469 kts | 4° |
| 2026-05-04 14:24 | 54.82930 | 8.04270 | 39019 ft | 469 kts | 4° |
| 2026-05-04 14:24 | 54.89410 | 8.05877 | 39020 ft | 469 kts | 4° |
| 2026-05-04 14:25 | 54.95878 | 8.07486 | 39021 ft | 469 kts | 4° |
| 2026-05-04 14:25 | 55.04529 | 8.09647 | 39028 ft | 470 kts | 4° |
| 2026-05-04 14:26 | 55.10966 | 8.11261 | 39012 ft | 468 kts | 4° |
| 2026-05-04 14:26 | 55.17388 | 8.12880 | 39004 ft | 462 kts | 4° |
| 2026-05-04 14:27 | 55.23725 | 8.14480 | 39006 ft | 459 kts | 4° |
| 2026-05-04 14:27 | 55.30042 | 8.16078 | 39017 ft | 457 kts | 4° |
| 2026-05-04 14:28 | 55.36295 | 8.17665 | 39007 ft | 456 kts | 4° |
| 2026-05-04 14:28 | 55.42602 | 8.19271 | 39008 ft | 456 kts | 4° |
| 2026-05-04 14:29 | 55.55163 | 8.22485 | 39011 ft | 459 kts | 4° |
| 2026-05-04 14:30 | 55.61522 | 8.24120 | 39006 ft | 461 kts | 4° |
| 2026-05-04 14:31 | 55.71048 | 8.26582 | 39002 ft | 463 kts | 4° |
| 2026-05-04 14:32 | 55.83844 | 8.29907 | 38997 ft | 465 kts | 4° |
| 2026-05-04 14:32 | 55.90224 | 8.31574 | 38996 ft | 465 kts | 5° |
| 2026-05-04 14:33 | 55.96627 | 8.33252 | 38995 ft | 465 kts | 4° |
| 2026-05-04 14:33 | 56.03039 | 8.34938 | 39007 ft | 464 kts | 4° |
| 2026-05-04 14:34 | 56.09435 | 8.36625 | 38998 ft | 464 kts | 4° |
| 2026-05-04 14:34 | 56.15812 | 8.38313 | 38988 ft | 463 kts | 4° |
| 2026-05-04 14:35 | 56.22146 | 8.39995 | 38995 ft | 462 kts | 4° |
| 2026-05-04 14:35 | 56.28506 | 8.41690 | 38978 ft | 461 kts | 4° |
| 2026-05-04 14:36 | 56.34848 | 8.43385 | 38992 ft | 461 kts | 4° |
| 2026-05-04 14:36 | 56.41198 | 8.45088 | 38980 ft | 461 kts | 4° |
| 2026-05-04 14:37 | 56.47515 | 8.46788 | 38983 ft | 461 kts | 4° |
| 2026-05-04 14:37 | 56.53877 | 8.48506 | 38985 ft | 461 kts | 4° |
| 2026-05-04 14:38 | 56.60192 | 8.50216 | 38980 ft | 462 kts | 4° |
| 2026-05-04 14:38 | 56.66566 | 8.51949 | 38973 ft | 463 kts | 4° |
| 2026-05-04 14:39 | 56.72963 | 8.53694 | 38971 ft | 463 kts | 4° |
| 2026-05-04 14:39 | 56.79313 | 8.55433 | 38965 ft | 464 kts | 4° |
| 2026-05-04 14:40 | 56.88892 | 8.58066 | 38965 ft | 465 kts | 4° |
| 2026-05-04 14:40 | 56.95298 | 8.59835 | 38959 ft | 465 kts | 4° |
| 2026-05-04 14:41 | 57.01697 | 8.61609 | 38953 ft | 465 kts | 4° |
| 2026-05-04 14:42 | 57.14447 | 8.65161 | 38945 ft | 464 kts | 4° |
| 2026-05-04 14:42 | 57.20820 | 8.66946 | 38934 ft | 462 kts | 4° |
| 2026-05-04 14:43 | 57.27186 | 8.68735 | 38937 ft | 461 kts | 4° |
| 2026-05-04 14:43 | 57.33491 | 8.70513 | 38931 ft | 459 kts | 4° |
| 2026-05-04 14:44 | 57.38749 | 8.72000 | 38941 ft | 459 kts | 3° |
| 2026-05-04 14:44 | 57.45067 | 8.73793 | 38926 ft | 457 kts | 3° |
| 2026-05-04 14:45 | 57.51335 | 8.75577 | 38910 ft | 457 kts | 3° |
| 2026-05-04 14:45 | 57.57636 | 8.77378 | 38912 ft | 456 kts | 3° |
| 2026-05-04 14:46 | 57.63871 | 8.79165 | 38925 ft | 456 kts | 3° |
| 2026-05-04 14:46 | 57.70178 | 8.80905 | 38910 ft | 456 kts | 1° |
| 2026-05-04 14:47 | 57.76452 | 8.82148 | 38895 ft | 455 kts | 360° |
| 2026-05-04 14:47 | 57.82778 | 8.83302 | 38892 ft | 457 kts | 360° |
| 2026-05-04 14:48 | 57.89122 | 8.84521 | 38881 ft | 458 kts | 0° |
| 2026-05-04 14:48 | 57.95461 | 8.85786 | 38874 ft | 460 kts | 0° |
| 2026-05-04 14:49 | 58.01803 | 8.87068 | 38871 ft | 461 kts | 0° |
| 2026-05-04 14:49 | 58.08199 | 8.88365 | 38854 ft | 462 kts | 0° |
| 2026-05-04 14:50 | 58.14618 | 8.89670 | 38851 ft | 463 kts | 0° |
| 2026-05-04 14:50 | 58.20989 | 8.90969 | 38846 ft | 464 kts | 360° |
| 2026-05-04 14:51 | 58.27425 | 8.92285 | 38847 ft | 464 kts | 360° |
| 2026-05-04 14:51 | 58.33824 | 8.93600 | 38827 ft | 464 kts | 360° |
| 2026-05-04 14:52 | 58.40297 | 8.94929 | 38269 ft | 472 kts | 360° |
| 2026-05-04 14:52 | 58.43550 | 8.95601 | 37692 ft | 468 kts | 360° |
| 2026-05-04 14:52 | 58.46726 | 8.96265 | 37327 ft | 461 kts | 359° |
| 2026-05-04 14:53 | 58.49917 | 8.96934 | 36856 ft | 456 kts | 359° |
| 2026-05-04 14:53 | 58.53067 | 8.97593 | 36466 ft | 451 kts | 359° |
| 2026-05-04 14:53 | 58.56164 | 8.98239 | 36064 ft | 446 kts | 359° |
| 2026-05-04 14:53 | 58.59234 | 8.98879 | 35675 ft | 441 kts | 359° |
| 2026-05-04 14:54 | 58.62271 | 8.99512 | 35269 ft | 437 kts | 359° |
| 2026-05-04 14:54 | 58.65291 | 9.00142 | 34872 ft | 433 kts | 358° |
| 2026-05-04 14:54 | 58.68248 | 9.00760 | 34482 ft | 430 kts | 358° |
| 2026-05-04 14:54 | 58.71219 | 9.01382 | 34098 ft | 427 kts | 358° |
| 2026-05-04 14:55 | 58.74162 | 9.02000 | 33677 ft | 424 kts | 358° |
| 2026-05-04 14:55 | 58.77058 | 9.02608 | 33213 ft | 421 kts | 358° |
| 2026-05-04 14:55 | 58.79960 | 9.03243 | 32797 ft | 419 kts | 360° |
| 2026-05-04 14:55 | 58.82818 | 9.04598 | 32488 ft | 425 kts | 11° |
| 2026-05-04 14:56 | 58.85543 | 9.06769 | 32287 ft | 424 kts | 19° |
| 2026-05-04 14:56 | 58.88125 | 9.09600 | 31940 ft | 424 kts | 22° |
| 2026-05-04 14:56 | 58.90649 | 9.12549 | 31513 ft | 423 kts | 23° |
| 2026-05-04 14:56 | 58.93164 | 9.15549 | 30704 ft | 430 kts | 23° |
| 2026-05-04 14:57 | 58.95726 | 9.18612 | 29713 ft | 443 kts | 24° |
| 2026-05-04 14:57 | 58.98327 | 9.21746 | 29298 ft | 437 kts | 24° |
| 2026-05-04 14:57 | 59.00901 | 9.24857 | 28859 ft | 433 kts | 22° |
| 2026-05-04 14:57 | 59.03452 | 9.27939 | 28399 ft | 429 kts | 22° |
| 2026-05-04 14:58 | 59.05975 | 9.30983 | 27973 ft | 424 kts | 22° |
| 2026-05-04 14:58 | 59.08470 | 9.33990 | 27566 ft | 418 kts | 22° |
| 2026-05-04 14:58 | 59.10932 | 9.36957 | 27169 ft | 413 kts | 22° |
| 2026-05-04 14:58 | 59.13365 | 9.39890 | 26782 ft | 409 kts | 22° |
| 2026-05-04 14:59 | 59.15747 | 9.42765 | 26379 ft | 405 kts | 22° |
| 2026-05-04 14:59 | 59.18135 | 9.45649 | 26000 ft | 401 kts | 22° |
| 2026-05-04 14:59 | 59.22841 | 9.51351 | 25249 ft | 395 kts | 21° |
| 2026-05-04 15:00 | 59.25170 | 9.54180 | 24910 ft | 392 kts | 21° |
| 2026-05-04 15:00 | 59.27488 | 9.56998 | 24494 ft | 390 kts | 21° |
| 2026-05-04 15:00 | 59.29769 | 9.59773 | 24123 ft | 389 kts | 21° |
| 2026-05-04 15:01 | 59.34353 | 9.65369 | 23365 ft | 386 kts | 20° |
| 2026-05-04 15:01 | 59.36639 | 9.68167 | 22902 ft | 386 kts | 21° |
| 2026-05-04 15:01 | 59.38919 | 9.70963 | 22509 ft | 383 kts | 21° |
| 2026-05-04 15:01 | 59.41170 | 9.73731 | 22121 ft | 381 kts | 21° |
| 2026-05-04 15:02 | 59.43378 | 9.76451 | 21746 ft | 378 kts | 21° |
| 2026-05-04 15:02 | 59.45603 | 9.79197 | 21380 ft | 375 kts | 21° |
| 2026-05-04 15:02 | 59.47806 | 9.81919 | 21006 ft | 372 kts | 21° |
| 2026-05-04 15:02 | 59.49988 | 9.84619 | 20653 ft | 369 kts | 21° |
| 2026-05-04 15:03 | 59.52156 | 9.87303 | 20360 ft | 367 kts | 21° |
| 2026-05-04 15:03 | 59.54327 | 9.89991 | 19934 ft | 368 kts | 21° |
| 2026-05-04 15:03 | 59.56462 | 9.92639 | 19573 ft | 366 kts | 21° |
| 2026-05-04 15:03 | 59.58609 | 9.95309 | 19218 ft | 365 kts | 21° |
| 2026-05-04 15:04 | 59.60762 | 9.97990 | 18802 ft | 365 kts | 21° |
| 2026-05-04 15:04 | 59.62903 | 10.00662 | 18497 ft | 362 kts | 21° |
| 2026-05-04 15:04 | 59.65038 | 10.03329 | 18125 ft | 363 kts | 21° |
| 2026-05-04 15:04 | 59.67176 | 10.06002 | 17725 ft | 363 kts | 22° |
| 2026-05-04 15:05 | 59.69308 | 10.08674 | 17338 ft | 362 kts | 22° |
| 2026-05-04 15:05 | 59.71424 | 10.11334 | 16972 ft | 359 kts | 22° |
| 2026-05-04 15:05 | 59.73525 | 10.13978 | 16630 ft | 356 kts | 22° |
| 2026-05-04 15:05 | 59.75579 | 10.16568 | 16290 ft | 353 kts | 22° |
| 2026-05-04 15:06 | 59.77648 | 10.19180 | 15938 ft | 350 kts | 23° |
| 2026-05-04 15:06 | 59.79692 | 10.21763 | 15644 ft | 347 kts | 23° |
| 2026-05-04 15:06 | 59.81732 | 10.24342 | 15288 ft | 345 kts | 24° |
| 2026-05-04 15:07 | 59.85768 | 10.29455 | 14622 ft | 342 kts | 24° |
| 2026-05-04 15:07 | 59.87771 | 10.31999 | 14270 ft | 340 kts | 25° |
| 2026-05-04 15:07 | 59.89766 | 10.34536 | 13941 ft | 337 kts | 25° |
| 2026-05-04 15:07 | 59.91707 | 10.37010 | 13629 ft | 334 kts | 25° |
| 2026-05-04 15:08 | 59.93645 | 10.39487 | 13416 ft | 327 kts | 25° |
| 2026-05-04 15:08 | 59.95549 | 10.41924 | 13124 ft | 322 kts | 26° |
| 2026-05-04 15:08 | 59.97421 | 10.44321 | 12890 ft | 316 kts | 26° |
| 2026-05-04 15:08 | 59.99239 | 10.46651 | 12609 ft | 311 kts | 26° |
| 2026-05-04 15:09 | 60.01051 | 10.48975 | 12281 ft | 309 kts | 26° |
| 2026-05-04 15:09 | 60.02849 | 10.51282 | 11971 ft | 305 kts | 26° |
| 2026-05-04 15:09 | 60.04636 | 10.53577 | 11721 ft | 303 kts | 26° |
| 2026-05-04 15:10 | 60.08160 | 10.58117 | 11045 ft | 297 kts | 26° |
| 2026-05-04 15:10 | 60.09867 | 10.60321 | 10769 ft | 295 kts | 26° |
| 2026-05-04 15:10 | 60.13317 | 10.64781 | 10164 ft | 294 kts | 26° |
| 2026-05-04 15:11 | 60.15032 | 10.67008 | 9859 ft | 293 kts | 27° |
| 2026-05-04 15:11 | 60.16740 | 10.69228 | 9554 ft | 291 kts | 27° |
| 2026-05-04 15:11 | 60.18434 | 10.71427 | 9257 ft | 288 kts | 27° |
| 2026-05-04 15:11 | 60.20119 | 10.73615 | 8947 ft | 288 kts | 27° |
| 2026-05-04 15:12 | 60.21801 | 10.75804 | 8655 ft | 287 kts | 27° |
| 2026-05-04 15:12 | 60.23476 | 10.77989 | 8358 ft | 286 kts | 27° |
| 2026-05-04 15:12 | 60.25124 | 10.80141 | 8070 ft | 285 kts | 27° |
| 2026-05-04 15:12 | 60.26787 | 10.82315 | 7778 ft | 283 kts | 27° |
| 2026-05-04 15:13 | 60.28439 | 10.84478 | 7495 ft | 282 kts | 28° |
| 2026-05-04 15:13 | 60.30094 | 10.86644 | 7065 ft | 286 kts | 27° |
| 2026-05-04 15:13 | 60.31760 | 10.88830 | 6772 ft | 285 kts | 28° |
| 2026-05-04 15:13 | 60.33425 | 10.91018 | 6449 ft | 284 kts | 28° |
| 2026-05-04 15:14 | 60.35066 | 10.93178 | 6172 ft | 282 kts | 28° |
| 2026-05-04 15:14 | 60.36700 | 10.95331 | 5908 ft | 279 kts | 29° |
| 2026-05-04 15:14 | 60.38322 | 10.97470 | 5633 ft | 276 kts | 28° |
| 2026-05-04 15:14 | 60.39914 | 10.99574 | 5405 ft | 271 kts | 28° |
| 2026-05-04 15:15 | 60.41491 | 11.01659 | 5150 ft | 268 kts | 28° |
| 2026-05-04 15:15 | 60.43011 | 11.03703 | 4941 ft | 264 kts | 33° |
| 2026-05-04 15:15 | 60.44160 | 11.06565 | 4743 ft | 265 kts | 66° |
| 2026-05-04 15:16 | 60.43864 | 11.13452 | 4412 ft | 241 kts | 124° |
| 2026-05-04 15:16 | 60.42842 | 11.16009 | 4226 ft | 228 kts | 140° |
| 2026-05-04 15:16 | 60.40538 | 11.19700 | 3989 ft | 192 kts | 179° |
| 2026-05-04 15:17 | 60.39302 | 11.19403 | 4012 ft | 179 kts | 204° |
| 2026-05-04 15:17 | 60.36860 | 11.17977 | 3839 ft | 181 kts | 203° |
| 2026-05-04 15:17 | 60.35671 | 11.17292 | 3626 ft | 176 kts | 203° |
| 2026-05-04 15:18 | 60.34501 | 11.16614 | 3402 ft | 175 kts | 204° |
| 2026-05-04 15:18 | 60.33333 | 11.15935 | 3170 ft | 177 kts | 203° |
| 2026-05-04 15:18 | 60.32146 | 11.15252 | 2925 ft | 176 kts | 203° |
| 2026-05-04 15:19 | 60.29824 | 11.13915 | 2432 ft | 167 kts | 203° |
| 2026-05-04 15:19 | 60.28748 | 11.13295 | 2214 ft | 156 kts | 203° |
| 2026-05-04 15:19 | 60.26667 | 11.12092 | 1777 ft | 151 kts | 203° |
| 2026-05-04 15:20 | 60.25688 | 11.11524 | 1563 ft | 144 kts | 203° |
| 2026-05-04 15:20 | 60.24739 | 11.10969 | 1365 ft | 140 kts | 202° |
| 2026-05-04 15:20 | 60.23791 | 11.10419 | 1175 ft | 144 kts | 200° |
| 2026-05-04 15:20 | 60.22817 | 11.09860 | 992 ft | 146 kts | 199° |
| 2026-05-04 15:21 | 60.21847 | 11.09305 | 772 ft | 142 kts | 200° |
| 2026-05-04 15:21 | 60.20943 | 11.08781 | 680 ft | 103 kts | 196° |
| 2026-05-04 15:21 | 60.20307 | 11.08438 | 674 ft | 17 kts | 165° |
| 2026-05-04 15:22 | 60.20249 | 11.08621 | 676 ft | 16 kts | 105° |
| 2026-05-04 15:22 | 60.20218 | 11.08834 | 679 ft | 16 kts | 105° |
| 2026-05-04 15:22 | 60.20154 | 11.09254 | 676 ft | 16 kts | 106° |
| 2026-05-04 15:23 | 60.20122 | 11.09481 | 679 ft | 18 kts | 104° |
| 2026-05-04 15:23 | 60.20086 | 11.09728 | 683 ft | 18 kts | 106° |
| 2026-05-04 15:23 | 60.20052 | 11.09971 | 679 ft | 18 kts | 106° |
| 2026-05-04 15:23 | 60.20019 | 11.10204 | 683 ft | 17 kts | 106° |
| 2026-05-04 15:24 | 60.19950 | 11.10585 | 681 ft | 11 kts | 145° |
| 2026-05-04 15:24 | 60.19797 | 11.10523 | 682 ft | 12 kts | 196° |
| 2026-05-04 15:25 | 60.19718 | 11.10477 | 683 ft | 12 kts | 195° |
| 2026-05-04 15:25 | 60.19643 | 11.10434 | 680 ft | 9 kts | 196° |
| 2026-05-04 15:25 | 60.19613 | 11.10373 | 681 ft | 5 kts | 273° |
| 2026-05-04 15:26 | 60.19633 | 11.10253 | 684 ft | 4 kts | 284° |
| 2026-05-04 15:26 | 60.19640 | 11.10205 | 678 ft | 1 kts | 286° |
| 2026-05-04 15:26 | 60.19641 | 11.10201 | 679 ft | 0 kts | 285° |